sensor_id;sensor_type;location;lat;lon;timestamp;P1;durP1;ratioP1;P2;durP2;ratioP2
46463;SDS011;32161;48.148;-1.554;2023-09-19T00:00:33;3.65;;;1.20;;
46463;SDS011;32161;48.148;-1.554;2023-09-19T00:03:01;6.85;;;1.40;;
46463;SDS011;32161;48.148;-1.554;2023-09-19T00:05:30;5.50;;;1.80;;
46463;SDS011;32161;48.148;-1.554;2023-09-19T00:08:03;7.15;;;1.52;;
46463;SDS011;32161;48.148;-1.554;2023-09-19T00:10:33;2.95;;;0.80;;
46463;SDS011;32161;48.148;-1.554;2023-09-19T00:13:01;4.18;;;1.63;;
46463;SDS011;32161;48.148;-1.554;2023-09-19T00:15:36;4.50;;;1.25;;
46463;SDS011;32161;48.148;-1.554;2023-09-19T00:18:06;4.40;;;1.20;;
46463;SDS011;32161;48.148;-1.554;2023-09-19T00:20:35;3.65;;;1.20;;
46463;SDS011;32161;48.148;-1.554;2023-09-19T00:23:03;1.48;;;0.82;;
46463;SDS011;32161;48.148;-1.554;2023-09-19T00:25:33;4.88;;;1.23;;
46463;SDS011;32161;48.148;-1.554;2023-09-19T00:28:02;1.80;;;0.95;;
46463;SDS011;32161;48.148;-1.554;2023-09-19T00:30:32;4.20;;;0.90;;
46463;SDS011;32161;48.148;-1.554;2023-09-19T00:33:00;5.45;;;1.10;;
46463;SDS011;32161;48.148;-1.554;2023-09-19T00:35:31;4.20;;;1.20;;
46463;SDS011;32161;48.148;-1.554;2023-09-19T00:37:59;3.55;;;0.70;;
46463;SDS011;32161;48.148;-1.554;2023-09-19T00:40:26;3.35;;;1.30;;
46463;SDS011;32161;48.148;-1.554;2023-09-19T00:42:57;2.63;;;0.90;;
46463;SDS011;32161;48.148;-1.554;2023-09-19T00:47:55;3.33;;;1.10;;
46463;SDS011;32161;48.148;-1.554;2023-09-19T00:50:24;5.45;;;1.40;;
46463;SDS011;32161;48.148;-1.554;2023-09-19T00:52:54;2.20;;;0.77;;
46463;SDS011;32161;48.148;-1.554;2023-09-19T00:55:22;2.78;;;1.30;;
46463;SDS011;32161;48.148;-1.554;2023-09-19T00:57:51;2.90;;;0.98;;
46463;SDS011;32161;48.148;-1.554;2023-09-19T01:00:21;4.87;;;1.30;;
46463;SDS011;32161;48.148;-1.554;2023-09-19T01:02:49;4.05;;;1.45;;
46463;SDS011;32161;48.148;-1.554;2023-09-19T01:05:18;1.67;;;1.00;;
46463;SDS011;32161;48.148;-1.554;2023-09-19T01:07:46;4.05;;;0.98;;
46463;SDS011;32161;48.148;-1.554;2023-09-19T01:10:16;4.28;;;1.48;;
46463;SDS011;32161;48.148;-1.554;2023-09-19T01:12:48;2.10;;;0.70;;
46463;SDS011;32161;48.148;-1.554;2023-09-19T01:15:32;4.35;;;0.77;;
46463;SDS011;32161;48.148;-1.554;2023-09-19T01:18:16;5.60;;;2.10;;
46463;SDS011;32161;48.148;-1.554;2023-09-19T01:21:05;4.20;;;1.10;;
46463;SDS011;32161;48.148;-1.554;2023-09-19T01:23:52;6.22;;;1.30;;
46463;SDS011;32161;48.148;-1.554;2023-09-19T01:26:56;5.82;;;1.52;;
46463;SDS011;32161;48.148;-1.554;2023-09-19T01:29:45;6.07;;;1.10;;
46463;SDS011;32161;48.148;-1.554;2023-09-19T01:32:16;5.97;;;1.30;;
46463;SDS011;32161;48.148;-1.554;2023-09-19T01:34:47;6.38;;;1.08;;
46463;SDS011;32161;48.148;-1.554;2023-09-19T01:37:18;4.38;;;0.73;;
46463;SDS011;32161;48.148;-1.554;2023-09-19T01:39:52;2.58;;;1.30;;
46463;SDS011;32161;48.148;-1.554;2023-09-19T01:42:24;3.70;;;1.15;;
46463;SDS011;32161;48.148;-1.554;2023-09-19T01:45:06;6.18;;;1.30;;
46463;SDS011;32161;48.148;-1.554;2023-09-19T01:47:43;6.07;;;1.27;;
46463;SDS011;32161;48.148;-1.554;2023-09-19T01:50:17;4.10;;;1.42;;
46463;SDS011;32161;48.148;-1.554;2023-09-19T01:52:57;7.45;;;1.10;;
46463;SDS011;32161;48.148;-1.554;2023-09-19T01:55:30;3.30;;;1.52;;
46463;SDS011;32161;48.148;-1.554;2023-09-19T01:58:04;4.35;;;1.00;;
46463;SDS011;32161;48.148;-1.554;2023-09-19T02:00:41;3.22;;;1.13;;
46463;SDS011;32161;48.148;-1.554;2023-09-19T02:03:12;6.25;;;1.35;;
46463;SDS011;32161;48.148;-1.554;2023-09-19T02:05:41;6.07;;;1.60;;
46463;SDS011;32161;48.148;-1.554;2023-09-19T02:08:17;7.28;;;1.08;;
46463;SDS011;32161;48.148;-1.554;2023-09-19T02:10:46;6.47;;;1.40;;
46463;SDS011;32161;48.148;-1.554;2023-09-19T02:13:15;7.50;;;1.50;;
46463;SDS011;32161;48.148;-1.554;2023-09-19T02:15:44;6.43;;;1.60;;
46463;SDS011;32161;48.148;-1.554;2023-09-19T02:18:13;8.13;;;1.40;;
46463;SDS011;32161;48.148;-1.554;2023-09-19T02:20:42;4.55;;;1.38;;
46463;SDS011;32161;48.148;-1.554;2023-09-19T02:23:11;6.13;;;2.00;;
46463;SDS011;32161;48.148;-1.554;2023-09-19T02:25:39;7.28;;;1.40;;
46463;SDS011;32161;48.148;-1.554;2023-09-19T02:28:08;5.90;;;1.33;;
46463;SDS011;32161;48.148;-1.554;2023-09-19T02:30:36;5.20;;;1.35;;
46463;SDS011;32161;48.148;-1.554;2023-09-19T02:33:04;10.18;;;1.60;;
46463;SDS011;32161;48.148;-1.554;2023-09-19T02:35:34;5.47;;;1.48;;
46463;SDS011;32161;48.148;-1.554;2023-09-19T02:38:03;6.75;;;1.95;;
46463;SDS011;32161;48.148;-1.554;2023-09-19T02:40:31;7.68;;;1.50;;
46463;SDS011;32161;48.148;-1.554;2023-09-19T02:43:01;4.30;;;1.30;;
46463;SDS011;32161;48.148;-1.554;2023-09-19T02:45:30;7.90;;;1.52;;
46463;SDS011;32161;48.148;-1.554;2023-09-19T02:47:58;9.52;;;2.55;;
46463;SDS011;32161;48.148;-1.554;2023-09-19T02:50:27;8.75;;;1.70;;
46463;SDS011;32161;48.148;-1.554;2023-09-19T02:52:57;8.25;;;1.63;;
46463;SDS011;32161;48.148;-1.554;2023-09-19T02:55:25;5.50;;;1.92;;
46463;SDS011;32161;48.148;-1.554;2023-09-19T02:57:52;6.50;;;1.35;;
46463;SDS011;32161;48.148;-1.554;2023-09-19T03:00:21;5.25;;;1.20;;
46463;SDS011;32161;48.148;-1.554;2023-09-19T03:02:49;5.43;;;1.23;;
46463;SDS011;32161;48.148;-1.554;2023-09-19T03:05:18;8.25;;;1.83;;
46463;SDS011;32161;48.148;-1.554;2023-09-19T03:07:47;3.25;;;1.63;;
46463;SDS011;32161;48.148;-1.554;2023-09-19T03:10:17;7.03;;;1.80;;
46463;SDS011;32161;48.148;-1.554;2023-09-19T03:12:45;6.80;;;1.67;;
46463;SDS011;32161;48.148;-1.554;2023-09-19T03:15:13;10.07;;;2.50;;
46463;SDS011;32161;48.148;-1.554;2023-09-19T03:17:42;5.15;;;1.88;;
46463;SDS011;32161;48.148;-1.554;2023-09-19T03:20:10;6.88;;;1.63;;
46463;SDS011;32161;48.148;-1.554;2023-09-19T03:22:42;7.78;;;2.70;;
46463;SDS011;32161;48.148;-1.554;2023-09-19T03:25:10;6.78;;;1.88;;
46463;SDS011;32161;48.148;-1.554;2023-09-19T03:27:40;7.15;;;1.27;;
46463;SDS011;32161;48.148;-1.554;2023-09-19T03:30:07;7.40;;;1.48;;
46463;SDS011;32161;48.148;-1.554;2023-09-19T03:32:43;11.43;;;1.85;;
46463;SDS011;32161;48.148;-1.554;2023-09-19T03:35:12;16.27;;;1.90;;
46463;SDS011;32161;48.148;-1.554;2023-09-19T03:37:40;11.05;;;2.13;;
46463;SDS011;32161;48.148;-1.554;2023-09-19T03:40:08;7.57;;;1.52;;
46463;SDS011;32161;48.148;-1.554;2023-09-19T03:42:37;5.80;;;1.88;;
46463;SDS011;32161;48.148;-1.554;2023-09-19T03:45:07;7.60;;;1.43;;
46463;SDS011;32161;48.148;-1.554;2023-09-19T03:47:38;9.57;;;1.63;;
46463;SDS011;32161;48.148;-1.554;2023-09-19T03:50:06;6.07;;;1.67;;
46463;SDS011;32161;48.148;-1.554;2023-09-19T03:52:36;7.53;;;1.65;;
46463;SDS011;32161;48.148;-1.554;2023-09-19T03:55:04;4.57;;;1.38;;
46463;SDS011;32161;48.148;-1.554;2023-09-19T03:57:31;10.27;;;2.55;;
46463;SDS011;32161;48.148;-1.554;2023-09-19T04:00:03;13.63;;;1.90;;
46463;SDS011;32161;48.148;-1.554;2023-09-19T04:02:36;6.82;;;1.52;;
46463;SDS011;32161;48.148;-1.554;2023-09-19T04:05:05;12.98;;;2.03;;
46463;SDS011;32161;48.148;-1.554;2023-09-19T04:07:33;9.52;;;1.45;;
46463;SDS011;32161;48.148;-1.554;2023-09-19T04:10:01;4.30;;;1.73;;
46463;SDS011;32161;48.148;-1.554;2023-09-19T04:12:29;4.63;;;1.65;;
46463;SDS011;32161;48.148;-1.554;2023-09-19T04:14:57;11.13;;;2.38;;
46463;SDS011;32161;48.148;-1.554;2023-09-19T04:17:26;9.02;;;1.80;;
46463;SDS011;32161;48.148;-1.554;2023-09-19T04:19:54;8.93;;;1.77;;
46463;SDS011;32161;48.148;-1.554;2023-09-19T04:22:22;7.95;;;1.60;;
46463;SDS011;32161;48.148;-1.554;2023-09-19T04:24:49;8.40;;;1.88;;
46463;SDS011;32161;48.148;-1.554;2023-09-19T04:27:17;9.60;;;2.65;;
46463;SDS011;32161;48.148;-1.554;2023-09-19T04:29:45;8.65;;;2.35;;
46463;SDS011;32161;48.148;-1.554;2023-09-19T04:32:12;7.70;;;1.95;;
46463;SDS011;32161;48.148;-1.554;2023-09-19T04:34:46;10.60;;;2.03;;
46463;SDS011;32161;48.148;-1.554;2023-09-19T04:37:14;9.00;;;2.08;;
46463;SDS011;32161;48.148;-1.554;2023-09-19T04:39:42;10.32;;;2.83;;
46463;SDS011;32161;48.148;-1.554;2023-09-19T04:42:12;5.32;;;1.40;;
46463;SDS011;32161;48.148;-1.554;2023-09-19T04:44:40;5.55;;;1.67;;
46463;SDS011;32161;48.148;-1.554;2023-09-19T04:47:08;8.98;;;1.55;;
46463;SDS011;32161;48.148;-1.554;2023-09-19T04:49:37;8.10;;;1.50;;
46463;SDS011;32161;48.148;-1.554;2023-09-19T04:52:07;10.85;;;2.05;;
46463;SDS011;32161;48.148;-1.554;2023-09-19T04:54:34;11.43;;;2.28;;
46463;SDS011;32161;48.148;-1.554;2023-09-19T04:57:02;7.63;;;2.85;;
46463;SDS011;32161;48.148;-1.554;2023-09-19T04:59:31;4.85;;;1.52;;
46463;SDS011;32161;48.148;-1.554;2023-09-19T05:01:59;7.60;;;1.42;;
46463;SDS011;32161;48.148;-1.554;2023-09-19T05:04:26;5.30;;;1.52;;
46463;SDS011;32161;48.148;-1.554;2023-09-19T05:06:54;7.15;;;1.40;;
46463;SDS011;32161;48.148;-1.554;2023-09-19T05:09:23;9.63;;;1.50;;
46463;SDS011;32161;48.148;-1.554;2023-09-19T05:11:50;9.02;;;2.03;;
46463;SDS011;32161;48.148;-1.554;2023-09-19T05:14:18;7.97;;;1.70;;
46463;SDS011;32161;48.148;-1.554;2023-09-19T05:16:46;12.40;;;2.63;;
46463;SDS011;32161;48.148;-1.554;2023-09-19T05:19:13;5.40;;;1.67;;
46463;SDS011;32161;48.148;-1.554;2023-09-19T05:21:42;6.15;;;1.38;;
46463;SDS011;32161;48.148;-1.554;2023-09-19T05:24:09;7.43;;;1.83;;
46463;SDS011;32161;48.148;-1.554;2023-09-19T05:26:40;10.68;;;1.98;;
46463;SDS011;32161;48.148;-1.554;2023-09-19T05:29:08;3.83;;;1.35;;
46463;SDS011;32161;48.148;-1.554;2023-09-19T05:31:35;11.45;;;1.70;;
46463;SDS011;32161;48.148;-1.554;2023-09-19T05:34:06;9.07;;;2.55;;
46463;SDS011;32161;48.148;-1.554;2023-09-19T05:36:35;8.73;;;1.77;;
46463;SDS011;32161;48.148;-1.554;2023-09-19T05:39:03;10.75;;;2.75;;
46463;SDS011;32161;48.148;-1.554;2023-09-19T05:41:34;7.72;;;2.15;;
46463;SDS011;32161;48.148;-1.554;2023-09-19T05:44:06;8.68;;;2.83;;
46463;SDS011;32161;48.148;-1.554;2023-09-19T05:46:34;5.22;;;1.70;;
46463;SDS011;32161;48.148;-1.554;2023-09-19T05:49:02;13.73;;;1.80;;
46463;SDS011;32161;48.148;-1.554;2023-09-19T05:51:29;6.88;;;1.98;;
46463;SDS011;32161;48.148;-1.554;2023-09-19T05:53:57;8.32;;;1.90;;
46463;SDS011;32161;48.148;-1.554;2023-09-19T05:56:24;13.48;;;2.33;;
46463;SDS011;32161;48.148;-1.554;2023-09-19T05:58:52;9.10;;;2.38;;
46463;SDS011;32161;48.148;-1.554;2023-09-19T06:01:21;11.27;;;2.72;;
46463;SDS011;32161;48.148;-1.554;2023-09-19T06:03:49;10.35;;;2.00;;
46463;SDS011;32161;48.148;-1.554;2023-09-19T06:06:18;11.93;;;3.40;;
46463;SDS011;32161;48.148;-1.554;2023-09-19T06:08:45;7.13;;;2.00;;
46463;SDS011;32161;48.148;-1.554;2023-09-19T06:11:15;9.25;;;2.03;;
46463;SDS011;32161;48.148;-1.554;2023-09-19T06:13:45;12.40;;;2.55;;
46463;SDS011;32161;48.148;-1.554;2023-09-19T06:16:13;5.43;;;2.13;;
46463;SDS011;32161;48.148;-1.554;2023-09-19T06:18:42;11.02;;;2.05;;
46463;SDS011;32161;48.148;-1.554;2023-09-19T06:21:10;5.45;;;2.53;;
46463;SDS011;32161;48.148;-1.554;2023-09-19T06:23:39;7.25;;;1.90;;
46463;SDS011;32161;48.148;-1.554;2023-09-19T06:26:07;9.57;;;1.95;;
46463;SDS011;32161;48.148;-1.554;2023-09-19T06:28:34;8.00;;;2.35;;
46463;SDS011;32161;48.148;-1.554;2023-09-19T06:31:02;4.13;;;1.80;;
46463;SDS011;32161;48.148;-1.554;2023-09-19T06:33:35;6.35;;;1.77;;
46463;SDS011;32161;48.148;-1.554;2023-09-19T06:36:05;12.27;;;2.22;;
46463;SDS011;32161;48.148;-1.554;2023-09-19T06:38:33;8.07;;;2.10;;
46463;SDS011;32161;48.148;-1.554;2023-09-19T06:41:01;11.75;;;2.25;;
46463;SDS011;32161;48.148;-1.554;2023-09-19T06:43:32;18.02;;;2.20;;
46463;SDS011;32161;48.148;-1.554;2023-09-19T06:46:00;11.20;;;2.60;;
46463;SDS011;32161;48.148;-1.554;2023-09-19T06:48:29;8.88;;;1.90;;
46463;SDS011;32161;48.148;-1.554;2023-09-19T06:50:58;8.32;;;2.13;;
46463;SDS011;32161;48.148;-1.554;2023-09-19T06:55:59;6.63;;;2.22;;
46463;SDS011;32161;48.148;-1.554;2023-09-19T06:58:27;6.75;;;2.00;;
46463;SDS011;32161;48.148;-1.554;2023-09-19T07:00:55;12.85;;;2.08;;
46463;SDS011;32161;48.148;-1.554;2023-09-19T07:03:22;9.32;;;1.85;;
46463;SDS011;32161;48.148;-1.554;2023-09-19T07:05:51;5.13;;;2.05;;
46463;SDS011;32161;48.148;-1.554;2023-09-19T07:08:21;8.25;;;2.08;;
46463;SDS011;32161;48.148;-1.554;2023-09-19T07:10:50;9.02;;;2.20;;
46463;SDS011;32161;48.148;-1.554;2023-09-19T07:13:19;6.07;;;2.78;;
46463;SDS011;32161;48.148;-1.554;2023-09-19T07:15:47;10.02;;;2.28;;
46463;SDS011;32161;48.148;-1.554;2023-09-19T07:18:15;15.52;;;3.72;;
46463;SDS011;32161;48.148;-1.554;2023-09-19T07:20:45;8.30;;;2.17;;
46463;SDS011;32161;48.148;-1.554;2023-09-19T07:23:15;8.15;;;1.88;;
46463;SDS011;32161;48.148;-1.554;2023-09-19T07:25:43;11.45;;;1.98;;
46463;SDS011;32161;48.148;-1.554;2023-09-19T07:28:13;10.15;;;1.83;;
46463;SDS011;32161;48.148;-1.554;2023-09-19T07:30:40;11.40;;;2.00;;
46463;SDS011;32161;48.148;-1.554;2023-09-19T07:33:08;10.45;;;2.40;;
46463;SDS011;32161;48.148;-1.554;2023-09-19T07:35:36;12.32;;;2.65;;
46463;SDS011;32161;48.148;-1.554;2023-09-19T07:38:06;15.05;;;2.13;;
46463;SDS011;32161;48.148;-1.554;2023-09-19T07:40:34;6.53;;;1.88;;
46463;SDS011;32161;48.148;-1.554;2023-09-19T07:43:02;9.52;;;2.33;;
46463;SDS011;32161;48.148;-1.554;2023-09-19T07:45:31;11.18;;;2.25;;
46463;SDS011;32161;48.148;-1.554;2023-09-19T07:47:59;13.52;;;2.50;;
46463;SDS011;32161;48.148;-1.554;2023-09-19T07:50:33;11.18;;;1.95;;
46463;SDS011;32161;48.148;-1.554;2023-09-19T07:53:01;7.90;;;2.33;;
46463;SDS011;32161;48.148;-1.554;2023-09-19T07:55:30;9.68;;;2.20;;
46463;SDS011;32161;48.148;-1.554;2023-09-19T07:57:59;7.30;;;1.88;;
46463;SDS011;32161;48.148;-1.554;2023-09-19T08:00:28;6.95;;;2.10;;
46463;SDS011;32161;48.148;-1.554;2023-09-19T08:02:59;5.97;;;2.25;;
46463;SDS011;32161;48.148;-1.554;2023-09-19T08:05:27;13.63;;;2.30;;
46463;SDS011;32161;48.148;-1.554;2023-09-19T08:07:55;7.80;;;2.13;;
46463;SDS011;32161;48.148;-1.554;2023-09-19T08:10:24;8.27;;;2.05;;
46463;SDS011;32161;48.148;-1.554;2023-09-19T08:12:52;10.23;;;2.17;;
46463;SDS011;32161;48.148;-1.554;2023-09-19T08:15:23;9.83;;;2.00;;
46463;SDS011;32161;48.148;-1.554;2023-09-19T08:17:51;13.25;;;2.50;;
46463;SDS011;32161;48.148;-1.554;2023-09-19T08:20:20;10.40;;;1.90;;
46463;SDS011;32161;48.148;-1.554;2023-09-19T08:22:48;16.73;;;3.70;;
46463;SDS011;32161;48.148;-1.554;2023-09-19T08:25:17;10.55;;;3.13;;
46463;SDS011;32161;48.148;-1.554;2023-09-19T08:27:45;9.15;;;1.92;;
46463;SDS011;32161;48.148;-1.554;2023-09-19T08:30:14;11.07;;;2.33;;
46463;SDS011;32161;48.148;-1.554;2023-09-19T08:32:43;10.02;;;2.00;;
46463;SDS011;32161;48.148;-1.554;2023-09-19T08:35:11;6.60;;;1.58;;
46463;SDS011;32161;48.148;-1.554;2023-09-19T08:37:41;6.45;;;2.30;;
46463;SDS011;32161;48.148;-1.554;2023-09-19T08:40:10;9.70;;;2.45;;
46463;SDS011;32161;48.148;-1.554;2023-09-19T08:42:47;13.60;;;2.42;;
46463;SDS011;32161;48.148;-1.554;2023-09-19T08:45:16;5.70;;;1.83;;
46463;SDS011;32161;48.148;-1.554;2023-09-19T08:47:45;6.57;;;1.80;;
46463;SDS011;32161;48.148;-1.554;2023-09-19T08:50:33;7.72;;;1.85;;
46463;SDS011;32161;48.148;-1.554;2023-09-19T08:53:11;14.07;;;2.30;;
46463;SDS011;32161;48.148;-1.554;2023-09-19T08:55:48;4.57;;;1.92;;
46463;SDS011;32161;48.148;-1.554;2023-09-19T08:58:21;7.93;;;2.47;;
46463;SDS011;32161;48.148;-1.554;2023-09-19T09:00:54;7.43;;;2.20;;
46463;SDS011;32161;48.148;-1.554;2023-09-19T09:03:26;9.10;;;1.65;;
46463;SDS011;32161;48.148;-1.554;2023-09-19T09:05:59;9.88;;;2.00;;
46463;SDS011;32161;48.148;-1.554;2023-09-19T09:08:28;9.90;;;1.83;;
46463;SDS011;32161;48.148;-1.554;2023-09-19T09:10:58;8.27;;;2.22;;
46463;SDS011;32161;48.148;-1.554;2023-09-19T09:13:26;8.07;;;1.58;;
46463;SDS011;32161;48.148;-1.554;2023-09-19T09:15:54;11.13;;;2.42;;
46463;SDS011;32161;48.148;-1.554;2023-09-19T09:18:24;10.52;;;2.65;;
46463;SDS011;32161;48.148;-1.554;2023-09-19T09:20:51;10.10;;;2.25;;
46463;SDS011;32161;48.148;-1.554;2023-09-19T09:23:21;7.57;;;1.77;;
46463;SDS011;32161;48.148;-1.554;2023-09-19T09:25:51;11.02;;;2.22;;
46463;SDS011;32161;48.148;-1.554;2023-09-19T09:28:22;13.93;;;3.15;;
46463;SDS011;32161;48.148;-1.554;2023-09-19T09:30:52;8.43;;;1.63;;
46463;SDS011;32161;48.148;-1.554;2023-09-19T09:33:20;11.07;;;2.15;;
46463;SDS011;32161;48.148;-1.554;2023-09-19T09:35:52;17.55;;;3.13;;
46463;SDS011;32161;48.148;-1.554;2023-09-19T09:38:22;11.00;;;3.00;;
46463;SDS011;32161;48.148;-1.554;2023-09-19T09:40:55;11.73;;;2.38;;
46463;SDS011;32161;48.148;-1.554;2023-09-19T09:43:32;12.98;;;2.92;;
46463;SDS011;32161;48.148;-1.554;2023-09-19T09:46:08;10.23;;;2.37;;
46463;SDS011;32161;48.148;-1.554;2023-09-19T09:48:59;12.27;;;2.67;;
46463;SDS011;32161;48.148;-1.554;2023-09-19T09:51:58;11.95;;;2.45;;
46463;SDS011;32161;48.148;-1.554;2023-09-19T09:54:30;10.10;;;2.30;;
46463;SDS011;32161;48.148;-1.554;2023-09-19T09:57:04;11.77;;;2.63;;
46463;SDS011;32161;48.148;-1.554;2023-09-19T09:59:46;13.02;;;2.63;;
46463;SDS011;32161;48.148;-1.554;2023-09-19T10:02:19;15.88;;;2.55;;
46463;SDS011;32161;48.148;-1.554;2023-09-19T10:04:50;12.55;;;2.88;;
46463;SDS011;32161;48.148;-1.554;2023-09-19T10:07:25;7.50;;;1.95;;
46463;SDS011;32161;48.148;-1.554;2023-09-19T10:10:01;12.57;;;2.78;;
46463;SDS011;32161;48.148;-1.554;2023-09-19T10:12:46;7.25;;;2.20;;
46463;SDS011;32161;48.148;-1.554;2023-09-19T10:15:16;7.55;;;2.40;;
46463;SDS011;32161;48.148;-1.554;2023-09-19T10:17:46;9.13;;;2.40;;
46463;SDS011;32161;48.148;-1.554;2023-09-19T10:20:15;10.10;;;2.10;;
46463;SDS011;32161;48.148;-1.554;2023-09-19T10:22:59;7.93;;;2.38;;
46463;SDS011;32161;48.148;-1.554;2023-09-19T10:25:28;9.05;;;2.67;;
46463;SDS011;32161;48.148;-1.554;2023-09-19T10:27:59;11.68;;;2.90;;
46463;SDS011;32161;48.148;-1.554;2023-09-19T10:30:29;9.32;;;2.70;;
46463;SDS011;32161;48.148;-1.554;2023-09-19T10:33:02;10.52;;;2.17;;
46463;SDS011;32161;48.148;-1.554;2023-09-19T10:35:32;9.48;;;2.00;;
46463;SDS011;32161;48.148;-1.554;2023-09-19T10:38:00;11.80;;;3.00;;
46463;SDS011;32161;48.148;-1.554;2023-09-19T10:40:32;10.15;;;2.88;;
46463;SDS011;32161;48.148;-1.554;2023-09-19T10:43:03;7.03;;;2.47;;
46463;SDS011;32161;48.148;-1.554;2023-09-19T10:45:32;10.60;;;2.28;;
46463;SDS011;32161;48.148;-1.554;2023-09-19T10:48:04;9.85;;;2.63;;
46463;SDS011;32161;48.148;-1.554;2023-09-19T10:50:33;10.57;;;2.05;;
46463;SDS011;32161;48.148;-1.554;2023-09-19T10:53:11;10.02;;;2.08;;
46463;SDS011;32161;48.148;-1.554;2023-09-19T10:55:40;14.30;;;2.30;;
46463;SDS011;32161;48.148;-1.554;2023-09-19T10:58:24;11.60;;;2.40;;
46463;SDS011;32161;48.148;-1.554;2023-09-19T11:00:54;8.00;;;2.15;;
46463;SDS011;32161;48.148;-1.554;2023-09-19T11:03:30;11.57;;;2.25;;
46463;SDS011;32161;48.148;-1.554;2023-09-19T11:08:52;8.00;;;2.08;;
46463;SDS011;32161;48.148;-1.554;2023-09-19T11:11:39;13.32;;;2.75;;
46463;SDS011;32161;48.148;-1.554;2023-09-19T11:14:32;11.20;;;2.60;;
46463;SDS011;32161;48.148;-1.554;2023-09-19T11:20:24;9.55;;;2.15;;
46463;SDS011;32161;48.148;-1.554;2023-09-19T11:25:53;10.23;;;3.05;;
46463;SDS011;32161;48.148;-1.554;2023-09-19T11:28:27;7.80;;;2.10;;
46463;SDS011;32161;48.148;-1.554;2023-09-19T11:40:44;12.05;;;2.72;;
46463;SDS011;32161;48.148;-1.554;2023-09-19T11:43:32;11.95;;;2.65;;
46463;SDS011;32161;48.148;-1.554;2023-09-19T11:46:08;8.68;;;2.13;;
46463;SDS011;32161;48.148;-1.554;2023-09-19T11:48:39;10.52;;;2.50;;
46463;SDS011;32161;48.148;-1.554;2023-09-19T11:51:16;16.70;;;2.60;;
46463;SDS011;32161;48.148;-1.554;2023-09-19T11:53:57;14.45;;;2.80;;
46463;SDS011;32161;48.148;-1.554;2023-09-19T11:56:27;11.38;;;2.55;;
46463;SDS011;32161;48.148;-1.554;2023-09-19T11:58:57;7.22;;;2.17;;
46463;SDS011;32161;48.148;-1.554;2023-09-19T12:01:26;12.85;;;3.30;;
46463;SDS011;32161;48.148;-1.554;2023-09-19T12:03:59;6.72;;;2.47;;
46463;SDS011;32161;48.148;-1.554;2023-09-19T12:06:29;12.63;;;2.60;;
46463;SDS011;32161;48.148;-1.554;2023-09-19T12:08:58;8.98;;;2.75;;
46463;SDS011;32161;48.148;-1.554;2023-09-19T12:11:28;9.85;;;2.25;;
46463;SDS011;32161;48.148;-1.554;2023-09-19T12:13:59;7.03;;;2.30;;
46463;SDS011;32161;48.148;-1.554;2023-09-19T12:16:27;7.93;;;2.47;;
46463;SDS011;32161;48.148;-1.554;2023-09-19T12:18:56;12.75;;;2.60;;
46463;SDS011;32161;48.148;-1.554;2023-09-19T12:24:21;7.63;;;2.45;;
46463;SDS011;32161;48.148;-1.554;2023-09-19T12:26:56;6.95;;;2.65;;
46463;SDS011;32161;48.148;-1.554;2023-09-19T12:29:30;9.57;;;2.72;;
46463;SDS011;32161;48.148;-1.554;2023-09-19T12:31:59;7.57;;;2.20;;
46463;SDS011;32161;48.148;-1.554;2023-09-19T12:34:32;9.63;;;2.70;;
46463;SDS011;32161;48.148;-1.554;2023-09-19T12:37:04;6.50;;;2.30;;
46463;SDS011;32161;48.148;-1.554;2023-09-19T12:39:37;8.65;;;2.13;;
46463;SDS011;32161;48.148;-1.554;2023-09-19T12:42:08;12.55;;;2.95;;
46463;SDS011;32161;48.148;-1.554;2023-09-19T12:44:40;9.05;;;2.78;;
46463;SDS011;32161;48.148;-1.554;2023-09-19T12:47:10;7.40;;;2.33;;
46463;SDS011;32161;48.148;-1.554;2023-09-19T12:52:40;15.63;;;2.78;;
46463;SDS011;32161;48.148;-1.554;2023-09-19T12:55:19;9.57;;;2.85;;
46463;SDS011;32161;48.148;-1.554;2023-09-19T13:00:41;9.80;;;2.83;;
46463;SDS011;32161;48.148;-1.554;2023-09-19T13:03:14;6.15;;;1.98;;
46463;SDS011;32161;48.148;-1.554;2023-09-19T13:05:53;6.82;;;2.40;;
46463;SDS011;32161;48.148;-1.554;2023-09-19T13:08:26;7.97;;;2.40;;
46463;SDS011;32161;48.148;-1.554;2023-09-19T13:13:46;9.43;;;2.35;;
46463;SDS011;32161;48.148;-1.554;2023-09-19T13:16:19;7.30;;;2.35;;
46463;SDS011;32161;48.148;-1.554;2023-09-19T13:18:49;10.50;;;2.95;;
46463;SDS011;32161;48.148;-1.554;2023-09-19T13:21:29;10.55;;;2.67;;
46463;SDS011;32161;48.148;-1.554;2023-09-19T13:26:52;8.45;;;2.22;;
46463;SDS011;32161;48.148;-1.554;2023-09-19T13:29:20;8.48;;;2.65;;
46463;SDS011;32161;48.148;-1.554;2023-09-19T13:31:48;7.70;;;2.80;;
46463;SDS011;32161;48.148;-1.554;2023-09-19T13:34:18;7.07;;;2.67;;
46463;SDS011;32161;48.148;-1.554;2023-09-19T13:36:47;19.50;;;3.20;;
46463;SDS011;32161;48.148;-1.554;2023-09-19T13:39:15;6.15;;;2.63;;
46463;SDS011;32161;48.148;-1.554;2023-09-19T13:41:43;13.63;;;3.00;;
46463;SDS011;32161;48.148;-1.554;2023-09-19T13:44:12;8.88;;;2.58;;
46463;SDS011;32161;48.148;-1.554;2023-09-19T13:46:41;12.57;;;4.32;;
46463;SDS011;32161;48.148;-1.554;2023-09-19T13:49:10;10.82;;;2.85;;
46463;SDS011;32161;48.148;-1.554;2023-09-19T13:51:38;9.20;;;3.33;;
46463;SDS011;32161;48.148;-1.554;2023-09-19T13:54:10;11.27;;;3.95;;
46463;SDS011;32161;48.148;-1.554;2023-09-19T13:56:38;12.88;;;3.45;;
46463;SDS011;32161;48.148;-1.554;2023-09-19T13:59:05;9.02;;;2.85;;
46463;SDS011;32161;48.148;-1.554;2023-09-19T14:01:33;6.97;;;2.55;;
46463;SDS011;32161;48.148;-1.554;2023-09-19T14:04:00;8.52;;;2.63;;
46463;SDS011;32161;48.148;-1.554;2023-09-19T14:06:28;14.00;;;2.67;;
46463;SDS011;32161;48.148;-1.554;2023-09-19T14:08:56;11.27;;;3.40;;
46463;SDS011;32161;48.148;-1.554;2023-09-19T14:11:24;7.50;;;2.70;;
46463;SDS011;32161;48.148;-1.554;2023-09-19T14:13:52;12.63;;;4.05;;
46463;SDS011;32161;48.148;-1.554;2023-09-19T14:16:19;11.38;;;3.08;;
46463;SDS011;32161;48.148;-1.554;2023-09-19T14:18:49;9.82;;;2.85;;
46463;SDS011;32161;48.148;-1.554;2023-09-19T14:21:17;9.30;;;2.78;;
46463;SDS011;32161;48.148;-1.554;2023-09-19T14:23:45;7.90;;;3.03;;
46463;SDS011;32161;48.148;-1.554;2023-09-19T14:26:14;12.63;;;3.20;;
46463;SDS011;32161;48.148;-1.554;2023-09-19T14:28:45;8.50;;;3.15;;
46463;SDS011;32161;48.148;-1.554;2023-09-19T14:31:12;14.48;;;3.92;;
46463;SDS011;32161;48.148;-1.554;2023-09-19T14:33:41;9.23;;;3.30;;
46463;SDS011;32161;48.148;-1.554;2023-09-19T14:36:09;8.63;;;3.13;;
46463;SDS011;32161;48.148;-1.554;2023-09-19T14:38:38;10.05;;;3.67;;
46463;SDS011;32161;48.148;-1.554;2023-09-19T14:41:06;7.97;;;3.50;;
46463;SDS011;32161;48.148;-1.554;2023-09-19T14:43:34;9.90;;;3.10;;
46463;SDS011;32161;48.148;-1.554;2023-09-19T14:46:06;9.15;;;4.22;;
46463;SDS011;32161;48.148;-1.554;2023-09-19T14:48:35;8.85;;;3.17;;
46463;SDS011;32161;48.148;-1.554;2023-09-19T14:51:02;10.93;;;3.40;;
46463;SDS011;32161;48.148;-1.554;2023-09-19T14:53:30;7.43;;;3.63;;
46463;SDS011;32161;48.148;-1.554;2023-09-19T14:55:59;9.70;;;3.28;;
46463;SDS011;32161;48.148;-1.554;2023-09-19T14:58:28;7.47;;;2.70;;
46463;SDS011;32161;48.148;-1.554;2023-09-19T15:01:01;13.75;;;3.55;;
46463;SDS011;32161;48.148;-1.554;2023-09-19T15:03:33;10.88;;;3.63;;
46463;SDS011;32161;48.148;-1.554;2023-09-19T15:06:01;10.95;;;3.17;;
46463;SDS011;32161;48.148;-1.554;2023-09-19T15:08:30;9.35;;;3.28;;
46463;SDS011;32161;48.148;-1.554;2023-09-19T15:10:59;9.73;;;3.22;;
46463;SDS011;32161;48.148;-1.554;2023-09-19T15:13:29;10.63;;;3.70;;
46463;SDS011;32161;48.148;-1.554;2023-09-19T15:15:59;11.30;;;3.33;;
46463;SDS011;32161;48.148;-1.554;2023-09-19T15:18:27;10.43;;;3.33;;
46463;SDS011;32161;48.148;-1.554;2023-09-19T15:20:57;9.48;;;3.70;;
46463;SDS011;32161;48.148;-1.554;2023-09-19T15:23:29;9.88;;;2.78;;
46463;SDS011;32161;48.148;-1.554;2023-09-19T15:25:57;13.38;;;3.63;;
46463;SDS011;32161;48.148;-1.554;2023-09-19T15:28:25;8.82;;;4.03;;